Capetan Vassilis — C6S2085 — position and weather

sailwx.info

Track history (hours):
 
Tides and Currents Weather Stations Pressure Air Temp Water Temp Dewpoint Dewpoint Depression Visibility Wind Speed Wind Dir Waves Ship Positions

Capetan Vassilis

Last reported at 2017-Nov-04 21:09 UTC. Time now 2017-Nov-20 12:10 UTC.
Position N 30°51' E 123°08'.
Warning: this ship's position is 15 days out of date.

Length 191 m; draft 6.6 m.

Type: Cargo ship. MMSI: 311552000.

Date/timePositionNaut miles runAvg speedWind from/ knotsBaromVisibWave heightAir tempDewpointWater temp
2017-Nov-04 21:09N 30°51' E 123°08'212.3
2017-Nov-04 20:58N 30°52' E 123°05'3013.1
2017-Nov-04 18:38N 30°59' E 122°31'214.3
2017-Nov-04 18:30N 30°60' E 122°29'714.4
2017-Nov-04 18:00N 31°02' E 122°21'713.5
2017-Nov-04 17:30N 31°03' E 122°13'612.6
2017-Nov-04 17:00N 31°04' E 122°06'611.8
2017-Nov-04 16:30N 31°06' E 121°59'5 9.4
2017-Nov-04 16:00N 31°08' E 121°54'510.2
2017-Nov-04 15:30N 31°11' E 121°50'5 9.8
2017-Nov-04 15:00N 31°15' E 121°46'5 9.8
2017-Nov-04 14:30N 31°19' E 121°42'4 8.1
2017-Nov-04 14:00N 31°21' E 121°39'5 9.8
2017-Nov-04 13:30N 31°24' E 121°34'4 8.6
2017-Nov-04 13:00N 31°26' E 121°29'510.2
2017-Nov-04 12:29N 31°30' E 121°25'612.6
2017-Nov-04 12:00N 31°33' E 121°19'714.1
2017-Nov-04 11:31N 31°39' E 121°14'913.3
2017-Nov-04 10:51N 31°44' E 121°06'  
2017-Oct-31 16:23N 32°01' E 120°46'14 2.0
2017-Oct-31 09:20N 31°49' E 120°55'6 7.1
2017-Oct-31 08:28N 31°46' E 121°02'6 8.1
2017-Oct-31 07:44N 31°43' E 121°08'3 8.3
2017-Oct-31 07:24N 31°41' E 121°10'3 8.9
2017-Oct-31 07:00N 31°39' E 121°13'5 9.3
2017-Oct-31 06:30N 31°36' E 121°17'5 9.4
2017-Oct-31 06:00N 31°33' E 121°21'5 9.5
2017-Oct-31 05:30N 31°30' E 121°26'4 8.5
2017-Oct-31 05:00N 31°27' E 121°29'4 8.0
2017-Oct-31 04:30N 31°24' E 121°33'5 9.4
2017-Oct-31 04:00N 31°22' E 121°38'4 8.0
2017-Oct-31 03:30N 31°20' E 121°41'3 6.7
2017-Oct-31 03:00N 31°19' E 121°45'3 5.2
2017-Oct-31 02:30N 31°18' E 121°48'5 9.4
2017-Oct-31 02:00N 31°16' E 121°53'5 8.6
2017-Oct-31 01:28N 31°15' E 121°58'510.0
2017-Oct-31 01:00N 31°14' E 122°04'12 9.9
2017-Oct-30 23:50N 31°08' E 122°15'18 6.8
2017-Oct-30 21:11N 31°07' E 122°36'4 7.2
2017-Oct-30 20:34N 31°08' E 122°41'0 4.1
2017-Oct-30 20:30N 31°08' E 122°42'3 5.6
2017-Oct-30 19:59N 31°10' E 122°44'4 0.3
2017-Oct-30 05:04N 31°12' E 122°49'2 8.2
2017-Oct-30 04:53N 31°12' E 122°51'4 1.7
2017-Oct-30 02:43N 31°14' E 122°55'0 1.5
2017-Oct-30 02:30N 31°14' E 122°55'  
Track history (hours):
 
Tides and Currents Weather Stations Pressure Air Temp Water Temp Dewpoint Dewpoint Depression Visibility Wind Speed Wind Dir Waves Ship Positions

Capetan Vassilis

Last reported at 2017-Nov-04 21:09 UTC. Time now 2017-Nov-20 12:10 UTC.
Position N 30°51' E 123°08'.
Warning: this ship's position is 15 days out of date.

Length 191 m; draft 6.6 m.

Type: Cargo ship. MMSI: 311552000.

Date/timePositionNaut miles runAvg speedWind from/ knotsBaromVisibWave heightAir tempDewpointWater temp
2017-Nov-04 21:09N 30°51' E 123°08'212.3
2017-Nov-04 20:58N 30°52' E 123°05'3013.1
2017-Nov-04 18:38N 30°59' E 122°31'214.3
2017-Nov-04 18:30N 30°60' E 122°29'714.4
2017-Nov-04 18:00N 31°02' E 122°21'713.5
2017-Nov-04 17:30N 31°03' E 122°13'612.6
2017-Nov-04 17:00N 31°04' E 122°06'611.8
2017-Nov-04 16:30N 31°06' E 121°59'5 9.4
2017-Nov-04 16:00N 31°08' E 121°54'510.2
2017-Nov-04 15:30N 31°11' E 121°50'5 9.8
2017-Nov-04 15:00N 31°15' E 121°46'5 9.8
2017-Nov-04 14:30N 31°19' E 121°42'4 8.1
2017-Nov-04 14:00N 31°21' E 121°39'5 9.8
2017-Nov-04 13:30N 31°24' E 121°34'4 8.6
2017-Nov-04 13:00N 31°26' E 121°29'510.2
2017-Nov-04 12:29N 31°30' E 121°25'612.6
2017-Nov-04 12:00N 31°33' E 121°19'714.1
2017-Nov-04 11:31N 31°39' E 121°14'913.3
2017-Nov-04 10:51N 31°44' E 121°06'  
2017-Oct-31 16:23N 32°01' E 120°46'14 2.0
2017-Oct-31 09:20N 31°49' E 120°55'6 7.1
2017-Oct-31 08:28N 31°46' E 121°02'6 8.1
2017-Oct-31 07:44N 31°43' E 121°08'3 8.3
2017-Oct-31 07:24N 31°41' E 121°10'3 8.9
2017-Oct-31 07:00N 31°39' E 121°13'5 9.3
2017-Oct-31 06:30N 31°36' E 121°17'5 9.4
2017-Oct-31 06:00N 31°33' E 121°21'5 9.5
2017-Oct-31 05:30N 31°30' E 121°26'4 8.5
2017-Oct-31 05:00N 31°27' E 121°29'4 8.0
2017-Oct-31 04:30N 31°24' E 121°33'5 9.4
2017-Oct-31 04:00N 31°22' E 121°38'4 8.0
2017-Oct-31 03:30N 31°20' E 121°41'3 6.7
2017-Oct-31 03:00N 31°19' E 121°45'3 5.2
2017-Oct-31 02:30N 31°18' E 121°48'5 9.4
2017-Oct-31 02:00N 31°16' E 121°53'5 8.6
2017-Oct-31 01:28N 31°15' E 121°58'510.0
2017-Oct-31 01:00N 31°14' E 122°04'12 9.9
2017-Oct-30 23:50N 31°08' E 122°15'18 6.8
2017-Oct-30 21:11N 31°07' E 122°36'4 7.2
2017-Oct-30 20:34N 31°08' E 122°41'0 4.1
2017-Oct-30 20:30N 31°08' E 122°42'3 5.6
2017-Oct-30 19:59N 31°10' E 122°44'4 0.3
2017-Oct-30 05:04N 31°12' E 122°49'2 8.2
2017-Oct-30 04:53N 31°12' E 122°51'4 1.7
2017-Oct-30 02:43N 31°14' E 122°55'0 1.5
2017-Oct-30 02:30N 31°14' E 122°55'  

Dump ship's entire track history